sensor_id;sensor_type;location;lat;lon;timestamp;temperature;humidity
82183;DHT22;71763;52.220;13.000;2023-08-17T00:01:54;20.50;55.90
82183;DHT22;71763;52.220;13.000;2023-08-17T00:04:20;20.40;55.80
82183;DHT22;71763;52.220;13.000;2023-08-17T00:06:46;20.40;55.80
82183;DHT22;71763;52.220;13.000;2023-08-17T00:09:12;20.40;55.80
82183;DHT22;71763;52.220;13.000;2023-08-17T00:11:38;20.40;55.80
82183;DHT22;71763;52.220;13.000;2023-08-17T00:14:04;20.40;55.80
82183;DHT22;71763;52.220;13.000;2023-08-17T00:16:30;20.30;55.70
82183;DHT22;71763;52.220;13.000;2023-08-17T00:18:56;20.40;55.80
82183;DHT22;71763;52.220;13.000;2023-08-17T00:21:21;20.40;55.80
82183;DHT22;71763;52.220;13.000;2023-08-17T00:23:47;20.40;56.00
82183;DHT22;71763;52.220;13.000;2023-08-17T00:26:12;20.40;55.80
82183;DHT22;71763;52.220;13.000;2023-08-17T00:28:39;20.40;55.80
82183;DHT22;71763;52.220;13.000;2023-08-17T00:31:04;20.40;55.80
82183;DHT22;71763;52.220;13.000;2023-08-17T00:33:30;20.40;55.80
82183;DHT22;71763;52.220;13.000;2023-08-17T00:35:55;20.40;55.80
82183;DHT22;71763;52.220;13.000;2023-08-17T00:38:21;20.40;55.80
82183;DHT22;71763;52.220;13.000;2023-08-17T00:40:47;20.40;55.80
82183;DHT22;71763;52.220;13.000;2023-08-17T00:43:13;20.40;55.80
82183;DHT22;71763;52.220;13.000;2023-08-17T00:45:39;20.40;55.80
82183;DHT22;71763;52.220;13.000;2023-08-17T00:48:06;20.40;55.80
82183;DHT22;71763;52.220;13.000;2023-08-17T00:50:34;20.30;55.70
82183;DHT22;71763;52.220;13.000;2023-08-17T00:53:00;20.30;55.70
82183;DHT22;71763;52.220;13.000;2023-08-17T00:55:26;20.20;55.60
82183;DHT22;71763;52.220;13.000;2023-08-17T00:57:53;20.20;55.60
82183;DHT22;71763;52.220;13.000;2023-08-17T01:00:19;20.20;55.60
82183;DHT22;71763;52.220;13.000;2023-08-17T01:02:46;20.10;55.50
82183;DHT22;71763;52.220;13.000;2023-08-17T01:05:12;20.10;55.70
82183;DHT22;71763;52.220;13.000;2023-08-17T01:07:37;20.00;55.80
82183;DHT22;71763;52.220;13.000;2023-08-17T01:10:03;20.00;55.80
82183;DHT22;71763;52.220;13.000;2023-08-17T01:15:45;19.90;56.00
82183;DHT22;71763;52.220;13.000;2023-08-17T01:18:19;19.90;56.10
82183;DHT22;71763;52.220;13.000;2023-08-17T01:20:47;19.80;56.20
82183;DHT22;71763;52.220;13.000;2023-08-17T01:23:13;19.80;56.30
82183;DHT22;71763;52.220;13.000;2023-08-17T01:25:39;19.80;56.40
82183;DHT22;71763;52.220;13.000;2023-08-17T01:28:05;19.80;56.60
82183;DHT22;71763;52.220;13.000;2023-08-17T01:33:44;19.70;56.60
82183;DHT22;71763;52.220;13.000;2023-08-17T01:38:40;19.60;56.70
82183;DHT22;71763;52.220;13.000;2023-08-17T01:41:09;19.50;56.70
82183;DHT22;71763;52.220;13.000;2023-08-17T01:43:40;19.50;56.80
82183;DHT22;71763;52.220;13.000;2023-08-17T01:46:07;19.50;56.80
82183;DHT22;71763;52.220;13.000;2023-08-17T01:48:33;19.40;56.80
82183;DHT22;71763;52.220;13.000;2023-08-17T01:50:58;19.40;56.90
82183;DHT22;71763;52.220;13.000;2023-08-17T01:53:24;19.40;56.90
82183;DHT22;71763;52.220;13.000;2023-08-17T01:55:49;19.40;56.90
82183;DHT22;71763;52.220;13.000;2023-08-17T01:58:15;19.30;56.90
82183;DHT22;71763;52.220;13.000;2023-08-17T02:00:40;19.40;57.00
82183;DHT22;71763;52.220;13.000;2023-08-17T02:03:06;19.30;56.90
82183;DHT22;71763;52.220;13.000;2023-08-17T02:05:31;19.30;57.00
82183;DHT22;71763;52.220;13.000;2023-08-17T02:07:57;19.30;57.00
82183;DHT22;71763;52.220;13.000;2023-08-17T02:10:22;19.30;57.00
82183;DHT22;71763;52.220;13.000;2023-08-17T02:12:48;19.30;56.90
82183;DHT22;71763;52.220;13.000;2023-08-17T02:15:13;19.30;56.90
82183;DHT22;71763;52.220;13.000;2023-08-17T02:17:39;19.30;56.90
82183;DHT22;71763;52.220;13.000;2023-08-17T02:20:05;19.30;56.90
82183;DHT22;71763;52.220;13.000;2023-08-17T02:22:31;19.30;56.90
82183;DHT22;71763;52.220;13.000;2023-08-17T02:24:56;19.30;56.90
82183;DHT22;71763;52.220;13.000;2023-08-17T02:27:22;19.30;56.90
82183;DHT22;71763;52.220;13.000;2023-08-17T02:29:47;19.30;56.90
82183;DHT22;71763;52.220;13.000;2023-08-17T02:32:12;19.30;56.90
82183;DHT22;71763;52.220;13.000;2023-08-17T02:34:38;19.30;56.90
82183;DHT22;71763;52.220;13.000;2023-08-17T02:37:03;19.30;56.90
82183;DHT22;71763;52.220;13.000;2023-08-17T02:39:29;19.30;56.90
82183;DHT22;71763;52.220;13.000;2023-08-17T02:41:55;19.30;56.90
82183;DHT22;71763;52.220;13.000;2023-08-17T02:44:21;19.30;57.00
82183;DHT22;71763;52.220;13.000;2023-08-17T02:46:46;19.30;57.70
82183;DHT22;71763;52.220;13.000;2023-08-17T02:49:12;19.30;57.10
82183;DHT22;71763;52.220;13.000;2023-08-17T02:51:37;19.20;57.00
82183;DHT22;71763;52.220;13.000;2023-08-17T02:54:03;19.20;57.10
82183;DHT22;71763;52.220;13.000;2023-08-17T02:56:28;19.20;57.10
82183;DHT22;71763;52.220;13.000;2023-08-17T02:58:54;19.20;57.20
82183;DHT22;71763;52.220;13.000;2023-08-17T03:01:19;19.20;57.30
82183;DHT22;71763;52.220;13.000;2023-08-17T03:03:45;19.10;57.20
82183;DHT22;71763;52.220;13.000;2023-08-17T03:06:10;19.10;57.30
82183;DHT22;71763;52.220;13.000;2023-08-17T03:08:36;19.10;57.40
82183;DHT22;71763;52.220;13.000;2023-08-17T03:11:01;19.10;57.40
82183;DHT22;71763;52.220;13.000;2023-08-17T03:13:27;19.00;57.40
82183;DHT22;71763;52.220;13.000;2023-08-17T03:15:54;19.00;57.50
82183;DHT22;71763;52.220;13.000;2023-08-17T03:18:19;19.00;57.50
82183;DHT22;71763;52.220;13.000;2023-08-17T03:20:45;19.00;57.50
82183;DHT22;71763;52.220;13.000;2023-08-17T03:23:11;19.00;57.50
82183;DHT22;71763;52.220;13.000;2023-08-17T03:25:37;19.00;57.60
82183;DHT22;71763;52.220;13.000;2023-08-17T03:28:03;18.90;57.50
82183;DHT22;71763;52.220;13.000;2023-08-17T03:30:28;18.90;57.60
82183;DHT22;71763;52.220;13.000;2023-08-17T03:32:54;18.90;57.60
82183;DHT22;71763;52.220;13.000;2023-08-17T03:35:19;18.90;57.60
82183;DHT22;71763;52.220;13.000;2023-08-17T03:37:45;18.90;57.70
82183;DHT22;71763;52.220;13.000;2023-08-17T03:40:11;18.90;57.70
82183;DHT22;71763;52.220;13.000;2023-08-17T03:42:36;18.90;57.70
82183;DHT22;71763;52.220;13.000;2023-08-17T03:45:02;18.90;57.70
82183;DHT22;71763;52.220;13.000;2023-08-17T03:47:28;18.90;57.60
82183;DHT22;71763;52.220;13.000;2023-08-17T03:49:54;18.90;57.60
82183;DHT22;71763;52.220;13.000;2023-08-17T03:52:19;19.00;57.60
82183;DHT22;71763;52.220;13.000;2023-08-17T03:54:45;19.00;57.60
82183;DHT22;71763;52.220;13.000;2023-08-17T03:57:12;19.00;57.50
82183;DHT22;71763;52.220;13.000;2023-08-17T03:59:37;19.10;57.60
82183;DHT22;71763;52.220;13.000;2023-08-17T04:02:03;19.10;57.50
82183;DHT22;71763;52.220;13.000;2023-08-17T04:04:28;19.10;57.50
82183;DHT22;71763;52.220;13.000;2023-08-17T04:06:54;19.10;57.40
82183;DHT22;71763;52.220;13.000;2023-08-17T04:09:19;19.10;57.40
82183;DHT22;71763;52.220;13.000;2023-08-17T04:11:45;19.20;57.50
82183;DHT22;71763;52.220;13.000;2023-08-17T04:14:10;19.20;57.50
82183;DHT22;71763;52.220;13.000;2023-08-17T04:16:36;19.20;57.60
82183;DHT22;71763;52.220;13.000;2023-08-17T04:19:01;19.20;57.60
82183;DHT22;71763;52.220;13.000;2023-08-17T04:21:27;19.20;57.50
82183;DHT22;71763;52.220;13.000;2023-08-17T04:23:52;19.20;57.50
82183;DHT22;71763;52.220;13.000;2023-08-17T04:26:18;19.30;57.60
82183;DHT22;71763;52.220;13.000;2023-08-17T04:28:43;19.30;57.60
82183;DHT22;71763;52.220;13.000;2023-08-17T04:31:08;19.30;57.50
82183;DHT22;71763;52.220;13.000;2023-08-17T04:33:34;19.30;57.40
82183;DHT22;71763;52.220;13.000;2023-08-17T04:35:59;19.40;57.40
82183;DHT22;71763;52.220;13.000;2023-08-17T04:38:26;19.40;57.40
82183;DHT22;71763;52.220;13.000;2023-08-17T04:40:52;19.40;57.50
82183;DHT22;71763;52.220;13.000;2023-08-17T04:43:17;19.40;57.40
82183;DHT22;71763;52.220;13.000;2023-08-17T04:45:43;19.50;57.50
82183;DHT22;71763;52.220;13.000;2023-08-17T04:48:09;19.50;57.50
82183;DHT22;71763;52.220;13.000;2023-08-17T04:50:35;19.50;57.50
82183;DHT22;71763;52.220;13.000;2023-08-17T04:53:00;19.50;57.50
82183;DHT22;71763;52.220;13.000;2023-08-17T04:55:26;19.50;57.40
82183;DHT22;71763;52.220;13.000;2023-08-17T04:57:51;19.60;57.50
82183;DHT22;71763;52.220;13.000;2023-08-17T05:00:17;19.60;57.50
82183;DHT22;71763;52.220;13.000;2023-08-17T05:02:43;19.60;57.60
82183;DHT22;71763;52.220;13.000;2023-08-17T05:05:10;19.50;57.50
82183;DHT22;71763;52.220;13.000;2023-08-17T05:07:35;19.50;57.60
82183;DHT22;71763;52.220;13.000;2023-08-17T05:10:01;19.50;57.60
82183;DHT22;71763;52.220;13.000;2023-08-17T05:12:27;19.50;57.50
82183;DHT22;71763;52.220;13.000;2023-08-17T05:14:53;19.50;57.50
82183;DHT22;71763;52.220;13.000;2023-08-17T05:17:18;19.50;57.50
82183;DHT22;71763;52.220;13.000;2023-08-17T05:19:44;19.50;57.40
82183;DHT22;71763;52.220;13.000;2023-08-17T05:22:11;19.60;57.60
82183;DHT22;71763;52.220;13.000;2023-08-17T05:24:37;19.60;58.10
82183;DHT22;71763;52.220;13.000;2023-08-17T05:27:03;19.50;57.50
82183;DHT22;71763;52.220;13.000;2023-08-17T05:29:28;19.50;57.80
82183;DHT22;71763;52.220;13.000;2023-08-17T05:31:54;19.40;58.00
82183;DHT22;71763;52.220;13.000;2023-08-17T05:34:19;19.30;58.20
82183;DHT22;71763;52.220;13.000;2023-08-17T05:36:45;19.30;58.50
82183;DHT22;71763;52.220;13.000;2023-08-17T05:39:11;19.20;58.70
82183;DHT22;71763;52.220;13.000;2023-08-17T05:41:36;19.20;58.90
82183;DHT22;71763;52.220;13.000;2023-08-17T05:44:02;19.20;59.10
82183;DHT22;71763;52.220;13.000;2023-08-17T05:46:27;19.10;59.30
82183;DHT22;71763;52.220;13.000;2023-08-17T05:48:53;19.00;59.40
82183;DHT22;71763;52.220;13.000;2023-08-17T05:51:18;19.00;59.60
82183;DHT22;71763;52.220;13.000;2023-08-17T05:53:44;18.90;59.80
82183;DHT22;71763;52.220;13.000;2023-08-17T05:56:10;18.90;59.90
82183;DHT22;71763;52.220;13.000;2023-08-17T05:58:35;18.90;59.90
82183;DHT22;71763;52.220;13.000;2023-08-17T06:01:08;18.80;59.80
82183;DHT22;71763;52.220;13.000;2023-08-17T06:03:35;18.80;59.80
82183;DHT22;71763;52.220;13.000;2023-08-17T06:06:01;18.70;59.80
82183;DHT22;71763;52.220;13.000;2023-08-17T06:08:27;18.60;59.70
82183;DHT22;71763;52.220;13.000;2023-08-17T06:10:52;18.60;59.70
82183;DHT22;71763;52.220;13.000;2023-08-17T06:13:18;18.60;59.70
82183;DHT22;71763;52.220;13.000;2023-08-17T06:15:43;18.60;59.90
82183;DHT22;71763;52.220;13.000;2023-08-17T06:18:09;18.50;59.90
82183;DHT22;71763;52.220;13.000;2023-08-17T06:20:34;18.50;60.00
82183;DHT22;71763;52.220;13.000;2023-08-17T06:23:00;18.50;60.00
82183;DHT22;71763;52.220;13.000;2023-08-17T06:25:25;18.50;60.00
82183;DHT22;71763;52.220;13.000;2023-08-17T06:27:51;18.50;60.10
82183;DHT22;71763;52.220;13.000;2023-08-17T06:30:17;18.50;60.20
82183;DHT22;71763;52.220;13.000;2023-08-17T06:32:43;18.50;60.10
82183;DHT22;71763;52.220;13.000;2023-08-17T06:35:09;18.50;60.20
82183;DHT22;71763;52.220;13.000;2023-08-17T06:37:34;18.50;60.20
82183;DHT22;71763;52.220;13.000;2023-08-17T06:40:00;18.50;60.20
82183;DHT22;71763;52.220;13.000;2023-08-17T06:42:28;18.50;60.20
82183;DHT22;71763;52.220;13.000;2023-08-17T06:44:54;18.60;60.30
82183;DHT22;71763;52.220;13.000;2023-08-17T06:47:19;18.60;60.30
82183;DHT22;71763;52.220;13.000;2023-08-17T06:49:45;18.60;61.00
82183;DHT22;71763;52.220;13.000;2023-08-17T06:52:10;18.70;60.10
82183;DHT22;71763;52.220;13.000;2023-08-17T06:54:36;18.70;60.00
82183;DHT22;71763;52.220;13.000;2023-08-17T06:57:01;18.70;59.90
82183;DHT22;71763;52.220;13.000;2023-08-17T06:59:27;18.80;59.90
82183;DHT22;71763;52.220;13.000;2023-08-17T07:01:52;18.80;59.90
82183;DHT22;71763;52.220;13.000;2023-08-17T07:04:18;18.90;60.00
82183;DHT22;71763;52.220;13.000;2023-08-17T07:06:43;18.90;60.60
82183;DHT22;71763;52.220;13.000;2023-08-17T07:09:09;19.00;60.00
82183;DHT22;71763;52.220;13.000;2023-08-17T07:11:38;19.00;60.00
82183;DHT22;71763;52.220;13.000;2023-08-17T07:14:04;19.10;60.10
82183;DHT22;71763;52.220;13.000;2023-08-17T07:16:31;19.20;60.20
82183;DHT22;71763;52.220;13.000;2023-08-17T07:18:57;19.30;60.30
82183;DHT22;71763;52.220;13.000;2023-08-17T07:21:22;19.30;60.30
82183;DHT22;71763;52.220;13.000;2023-08-17T07:23:50;19.40;60.40
82183;DHT22;71763;52.220;13.000;2023-08-17T07:26:16;19.50;60.40
82183;DHT22;71763;52.220;13.000;2023-08-17T07:28:44;19.50;60.50
82183;DHT22;71763;52.220;13.000;2023-08-17T07:31:09;19.50;60.50
82183;DHT22;71763;52.220;13.000;2023-08-17T07:33:35;19.60;60.60
82183;DHT22;71763;52.220;13.000;2023-08-17T07:36:01;19.60;60.60
82183;DHT22;71763;52.220;13.000;2023-08-17T07:38:26;19.70;60.70
82183;DHT22;71763;52.220;13.000;2023-08-17T07:40:52;19.80;60.60
82183;DHT22;71763;52.220;13.000;2023-08-17T07:43:17;19.90;60.40
82183;DHT22;71763;52.220;13.000;2023-08-17T07:45:43;20.00;60.50
82183;DHT22;71763;52.220;13.000;2023-08-17T07:48:08;20.10;60.40
82183;DHT22;71763;52.220;13.000;2023-08-17T07:50:34;20.20;60.30
82183;DHT22;71763;52.220;13.000;2023-08-17T07:52:59;20.30;60.10
82183;DHT22;71763;52.220;13.000;2023-08-17T07:55:26;20.50;60.00
82183;DHT22;71763;52.220;13.000;2023-08-17T07:57:51;20.60;59.90
82183;DHT22;71763;52.220;13.000;2023-08-17T08:00:17;20.70;59.70
82183;DHT22;71763;52.220;13.000;2023-08-17T08:02:43;20.80;59.70
82183;DHT22;71763;52.220;13.000;2023-08-17T08:05:08;21.00;59.60
82183;DHT22;71763;52.220;13.000;2023-08-17T08:07:34;21.40;59.40
82183;DHT22;71763;52.220;13.000;2023-08-17T08:09:59;21.60;58.80
82183;DHT22;71763;52.220;13.000;2023-08-17T08:12:25;22.00;58.60
82183;DHT22;71763;52.220;13.000;2023-08-17T08:14:51;22.30;58.20
82183;DHT22;71763;52.220;13.000;2023-08-17T08:17:18;22.50;58.30
82183;DHT22;71763;52.220;13.000;2023-08-17T08:19:44;22.60;57.70
82183;DHT22;71763;52.220;13.000;2023-08-17T08:22:10;22.70;57.80
82183;DHT22;71763;52.220;13.000;2023-08-17T08:24:36;22.60;57.90
82183;DHT22;71763;52.220;13.000;2023-08-17T08:27:01;22.60;58.30
82183;DHT22;71763;52.220;13.000;2023-08-17T08:29:27;22.70;58.50
82183;DHT22;71763;52.220;13.000;2023-08-17T08:31:53;22.70;58.40
82183;DHT22;71763;52.220;13.000;2023-08-17T08:34:18;22.70;58.50
82183;DHT22;71763;52.220;13.000;2023-08-17T08:36:44;22.70;58.80
82183;DHT22;71763;52.220;13.000;2023-08-17T08:39:09;22.60;59.10
82183;DHT22;71763;52.220;13.000;2023-08-17T08:41:37;22.60;59.40
82183;DHT22;71763;52.220;13.000;2023-08-17T08:44:03;22.50;59.50
82183;DHT22;71763;52.220;13.000;2023-08-17T08:46:30;22.50;59.70
82183;DHT22;71763;52.220;13.000;2023-08-17T08:48:56;22.50;59.80
82183;DHT22;71763;52.220;13.000;2023-08-17T08:51:31;22.40;59.80
82183;DHT22;71763;52.220;13.000;2023-08-17T08:54:01;22.50;60.00
82183;DHT22;71763;52.220;13.000;2023-08-17T08:56:35;22.40;59.90
82183;DHT22;71763;52.220;13.000;2023-08-17T08:59:02;22.50;60.00
82183;DHT22;71763;52.220;13.000;2023-08-17T09:01:30;22.50;60.00
82183;DHT22;71763;52.220;13.000;2023-08-17T09:03:59;22.60;59.90
82183;DHT22;71763;52.220;13.000;2023-08-17T09:06:25;22.70;59.80
82183;DHT22;71763;52.220;13.000;2023-08-17T09:08:52;22.90;59.60
82183;DHT22;71763;52.220;13.000;2023-08-17T09:11:18;23.00;59.30
82183;DHT22;71763;52.220;13.000;2023-08-17T09:13:44;23.20;58.90
82183;DHT22;71763;52.220;13.000;2023-08-17T09:16:09;23.40;58.40
82183;DHT22;71763;52.220;13.000;2023-08-17T09:18:35;23.50;58.50
82183;DHT22;71763;52.220;13.000;2023-08-17T09:21:01;23.60;58.60
82183;DHT22;71763;52.220;13.000;2023-08-17T09:23:27;23.70;58.70
82183;DHT22;71763;52.220;13.000;2023-08-17T09:25:52;23.80;58.80
82183;DHT22;71763;52.220;13.000;2023-08-17T09:28:23;23.70;58.70
82183;DHT22;71763;52.220;13.000;2023-08-17T09:30:57;23.70;58.70
82183;DHT22;71763;52.220;13.000;2023-08-17T09:33:24;23.70;58.70
82183;DHT22;71763;52.220;13.000;2023-08-17T09:35:51;23.70;58.70
82183;DHT22;71763;52.220;13.000;2023-08-17T09:38:18;23.60;58.60
82183;DHT22;71763;52.220;13.000;2023-08-17T09:40:43;23.50;58.50
82183;DHT22;71763;52.220;13.000;2023-08-17T09:43:10;23.70;58.70
82183;DHT22;71763;52.220;13.000;2023-08-17T09:45:37;24.10;59.00
82183;DHT22;71763;52.220;13.000;2023-08-17T09:48:03;24.90;58.00
82183;DHT22;71763;52.220;13.000;2023-08-17T09:50:29;25.40;56.70
82183;DHT22;71763;52.220;13.000;2023-08-17T09:52:54;25.80;56.00
82183;DHT22;71763;52.220;13.000;2023-08-17T09:55:21;26.10;55.40
82183;DHT22;71763;52.220;13.000;2023-08-17T09:57:51;26.20;55.10
82183;DHT22;71763;52.220;13.000;2023-08-17T10:00:20;26.30;55.10
82183;DHT22;71763;52.220;13.000;2023-08-17T10:02:49;26.30;55.20
82183;DHT22;71763;52.220;13.000;2023-08-17T10:05:18;26.30;55.50
82183;DHT22;71763;52.220;13.000;2023-08-17T10:07:49;26.40;55.60
82183;DHT22;71763;52.220;13.000;2023-08-17T10:10:21;26.60;55.30
82183;DHT22;71763;52.220;13.000;2023-08-17T10:13:07;26.70;55.40
82183;DHT22;71763;52.220;13.000;2023-08-17T10:15:37;26.80;55.40
82183;DHT22;71763;52.220;13.000;2023-08-17T10:18:17;26.80;55.50
82183;DHT22;71763;52.220;13.000;2023-08-17T10:21:01;26.70;55.40
82183;DHT22;71763;52.220;13.000;2023-08-17T10:23:28;26.60;55.40
82183;DHT22;71763;52.220;13.000;2023-08-17T10:25:55;26.60;55.90
82183;DHT22;71763;52.220;13.000;2023-08-17T10:28:24;26.40;56.10
82183;DHT22;71763;52.220;13.000;2023-08-17T10:30:51;26.20;57.10
82183;DHT22;71763;52.220;13.000;2023-08-17T10:33:16;26.20;56.70
82183;DHT22;71763;52.220;13.000;2023-08-17T10:35:43;26.40;56.50
82183;DHT22;71763;52.220;13.000;2023-08-17T10:38:10;26.80;55.50
82183;DHT22;71763;52.220;13.000;2023-08-17T10:40:37;27.10;55.20
82183;DHT22;71763;52.220;13.000;2023-08-17T10:43:04;27.10;55.10
82183;DHT22;71763;52.220;13.000;2023-08-17T10:45:32;27.00;55.30
82183;DHT22;71763;52.220;13.000;2023-08-17T10:50:38;27.30;55.30
82183;DHT22;71763;52.220;13.000;2023-08-17T10:53:08;27.40;55.00
82183;DHT22;71763;52.220;13.000;2023-08-17T10:55:39;27.60;54.80
82183;DHT22;71763;52.220;13.000;2023-08-17T10:58:06;28.20;54.10
82183;DHT22;71763;52.220;13.000;2023-08-17T11:00:35;28.40;53.50
82183;DHT22;71763;52.220;13.000;2023-08-17T11:03:09;28.30;53.50
82183;DHT22;71763;52.220;13.000;2023-08-17T11:05:52;28.10;54.10
82183;DHT22;71763;52.220;13.000;2023-08-17T11:08:29;28.10;54.50
82183;DHT22;71763;52.220;13.000;2023-08-17T11:11:09;28.20;54.40
82183;DHT22;71763;52.220;13.000;2023-08-17T11:13:36;28.40;54.00
82183;DHT22;71763;52.220;13.000;2023-08-17T11:16:03;28.40;54.00
82183;DHT22;71763;52.220;13.000;2023-08-17T11:18:29;28.40;54.10
82183;DHT22;71763;52.220;13.000;2023-08-17T11:20:55;28.30;54.30
82183;DHT22;71763;52.220;13.000;2023-08-17T11:23:21;28.10;54.50
82183;DHT22;71763;52.220;13.000;2023-08-17T11:25:48;27.90;54.90
82183;DHT22;71763;52.220;13.000;2023-08-17T11:28:13;27.80;55.20
82183;DHT22;71763;52.220;13.000;2023-08-17T11:30:40;27.70;55.40
82183;DHT22;71763;52.220;13.000;2023-08-17T11:33:07;27.60;55.40
82183;DHT22;71763;52.220;13.000;2023-08-17T11:35:33;27.60;55.40
82183;DHT22;71763;52.220;13.000;2023-08-17T11:37:59;27.60;55.50
82183;DHT22;71763;52.220;13.000;2023-08-17T11:40:26;27.80;55.20
82183;DHT22;71763;52.220;13.000;2023-08-17T11:42:52;27.90;54.90
82183;DHT22;71763;52.220;13.000;2023-08-17T11:45:18;27.80;54.70
82183;DHT22;71763;52.220;13.000;2023-08-17T11:47:47;27.90;54.80
82183;DHT22;71763;52.220;13.000;2023-08-17T11:50:14;28.00;54.60
82183;DHT22;71763;52.220;13.000;2023-08-17T11:52:40;28.40;54.70
82183;DHT22;71763;52.220;13.000;2023-08-17T11:55:07;28.70;53.50
82183;DHT22;71763;52.220;13.000;2023-08-17T11:57:35;28.70;53.20
82183;DHT22;71763;52.220;13.000;2023-08-17T12:00:03;28.80;53.20
82183;DHT22;71763;52.220;13.000;2023-08-17T12:02:31;28.80;53.10
82183;DHT22;71763;52.220;13.000;2023-08-17T12:04:57;28.80;53.10
82183;DHT22;71763;52.220;13.000;2023-08-17T12:07:26;29.20;53.00
82183;DHT22;71763;52.220;13.000;2023-08-17T12:09:52;29.30;52.50
82183;DHT22;71763;52.220;13.000;2023-08-17T12:12:19;29.40;52.30
82183;DHT22;71763;52.220;13.000;2023-08-17T12:14:47;29.50;52.20
82183;DHT22;71763;52.220;13.000;2023-08-17T12:17:20;29.60;52.00
82183;DHT22;71763;52.220;13.000;2023-08-17T12:19:53;30.10;52.00
82183;DHT22;71763;52.220;13.000;2023-08-17T12:22:19;30.50;52.30
82183;DHT22;71763;52.220;13.000;2023-08-17T12:24:48;30.50;52.30
82183;DHT22;71763;52.220;13.000;2023-08-17T12:27:14;30.70;51.90
82183;DHT22;71763;52.220;13.000;2023-08-17T12:29:49;30.60;52.40
82183;DHT22;71763;52.220;13.000;2023-08-17T12:32:16;30.40;52.20
82183;DHT22;71763;52.220;13.000;2023-08-17T12:34:42;30.20;52.10
82183;DHT22;71763;52.220;13.000;2023-08-17T12:37:11;30.00;52.00
82183;DHT22;71763;52.220;13.000;2023-08-17T12:39:37;29.80;52.30
82183;DHT22;71763;52.220;13.000;2023-08-17T12:42:04;29.60;53.00
82183;DHT22;71763;52.220;13.000;2023-08-17T12:44:30;29.50;53.30
82183;DHT22;71763;52.220;13.000;2023-08-17T12:46:55;29.40;53.30
82183;DHT22;71763;52.220;13.000;2023-08-17T12:49:23;29.30;53.50
82183;DHT22;71763;52.220;13.000;2023-08-17T12:51:48;29.20;53.70
82183;DHT22;71763;52.220;13.000;2023-08-17T12:54:14;29.00;53.90
82183;DHT22;71763;52.220;13.000;2023-08-17T12:56:39;28.90;54.20
82183;DHT22;71763;52.220;13.000;2023-08-17T12:59:05;28.80;54.10
82183;DHT22;71763;52.220;13.000;2023-08-17T13:01:30;28.90;54.10
82183;DHT22;71763;52.220;13.000;2023-08-17T13:03:56;28.90;54.00
82183;DHT22;71763;52.220;13.000;2023-08-17T13:06:21;29.10;53.70
82183;DHT22;71763;52.220;13.000;2023-08-17T13:08:47;29.20;53.20
82183;DHT22;71763;52.220;13.000;2023-08-17T13:11:13;29.30;53.10
82183;DHT22;71763;52.220;13.000;2023-08-17T13:13:38;29.30;53.00
82183;DHT22;71763;52.220;13.000;2023-08-17T13:16:04;29.20;53.00
82183;DHT22;71763;52.220;13.000;2023-08-17T13:18:29;29.30;53.10
82183;DHT22;71763;52.220;13.000;2023-08-17T13:20:55;29.40;52.80
82183;DHT22;71763;52.220;13.000;2023-08-17T13:23:20;29.40;52.50
82183;DHT22;71763;52.220;13.000;2023-08-17T13:25:46;29.40;52.50
82183;DHT22;71763;52.220;13.000;2023-08-17T13:28:11;29.50;52.40
82183;DHT22;71763;52.220;13.000;2023-08-17T13:30:38;29.60;52.00
82183;DHT22;71763;52.220;13.000;2023-08-17T13:33:04;29.80;51.80
82183;DHT22;71763;52.220;13.000;2023-08-17T13:35:32;30.00;52.00
82183;DHT22;71763;52.220;13.000;2023-08-17T13:37:57;29.90;51.90
82183;DHT22;71763;52.220;13.000;2023-08-17T13:40:23;29.90;51.90
82183;DHT22;71763;52.220;13.000;2023-08-17T13:42:49;30.00;52.00
82183;DHT22;71763;52.220;13.000;2023-08-17T13:45:15;29.90;51.90
82183;DHT22;71763;52.220;13.000;2023-08-17T13:47:41;30.10;52.00
82183;DHT22;71763;52.220;13.000;2023-08-17T13:50:06;30.10;52.00
82183;DHT22;71763;52.220;13.000;2023-08-17T13:52:32;30.10;52.00
82183;DHT22;71763;52.220;13.000;2023-08-17T13:54:58;29.90;51.90
82183;DHT22;71763;52.220;13.000;2023-08-17T13:57:23;30.00;52.00
82183;DHT22;71763;52.220;13.000;2023-08-17T13:59:49;29.90;51.90
82183;DHT22;71763;52.220;13.000;2023-08-17T14:02:14;29.90;51.90
82183;DHT22;71763;52.220;13.000;2023-08-17T14:04:40;29.80;51.80
82183;DHT22;71763;52.220;13.000;2023-08-17T14:07:05;29.80;51.80
82183;DHT22;71763;52.220;13.000;2023-08-17T14:09:31;29.90;51.90
82183;DHT22;71763;52.220;13.000;2023-08-17T14:11:57;29.90;51.90
82183;DHT22;71763;52.220;13.000;2023-08-17T14:14:22;30.00;52.00
82183;DHT22;71763;52.220;13.000;2023-08-17T14:16:48;30.20;52.10
82183;DHT22;71763;52.220;13.000;2023-08-17T14:19:13;30.10;52.00
82183;DHT22;71763;52.220;13.000;2023-08-17T14:21:39;30.00;51.90
82183;DHT22;71763;52.220;13.000;2023-08-17T14:24:05;30.00;52.00
82183;DHT22;71763;52.220;13.000;2023-08-17T14:26:32;30.00;52.00
82183;DHT22;71763;52.220;13.000;2023-08-17T14:28:57;29.90;52.50
82183;DHT22;71763;52.220;13.000;2023-08-17T14:31:22;29.90;51.90
82183;DHT22;71763;52.220;13.000;2023-08-17T14:33:48;30.00;52.00
82183;DHT22;71763;52.220;13.000;2023-08-17T14:36:15;30.00;52.00
82183;DHT22;71763;52.220;13.000;2023-08-17T14:38:41;30.10;52.00
82183;DHT22;71763;52.220;13.000;2023-08-17T14:41:07;30.10;52.00
82183;DHT22;71763;52.220;13.000;2023-08-17T14:43:33;30.10;52.00
82183;DHT22;71763;52.220;13.000;2023-08-17T14:45:59;30.20;52.10
82183;DHT22;71763;52.220;13.000;2023-08-17T14:48:25;30.20;52.10
82183;DHT22;71763;52.220;13.000;2023-08-17T14:50:51;30.40;52.20
82183;DHT22;71763;52.220;13.000;2023-08-17T14:53:16;30.40;51.70
82183;DHT22;71763;52.220;13.000;2023-08-17T14:55:42;30.50;51.50
82183;DHT22;71763;52.220;13.000;2023-08-17T14:58:07;30.50;51.40
82183;DHT22;71763;52.220;13.000;2023-08-17T15:00:33;30.60;51.40
82183;DHT22;71763;52.220;13.000;2023-08-17T15:02:58;30.50;51.20
82183;DHT22;71763;52.220;13.000;2023-08-17T15:05:25;30.50;51.30
82183;DHT22;71763;52.220;13.000;2023-08-17T15:07:51;30.60;51.20
82183;DHT22;71763;52.220;13.000;2023-08-17T15:10:16;30.70;51.00
82183;DHT22;71763;52.220;13.000;2023-08-17T15:12:42;30.80;50.80
82183;DHT22;71763;52.220;13.000;2023-08-17T15:15:08;30.80;50.70
82183;DHT22;71763;52.220;13.000;2023-08-17T15:17:34;30.80;50.70
82183;DHT22;71763;52.220;13.000;2023-08-17T15:19:59;30.80;50.80
82183;DHT22;71763;52.220;13.000;2023-08-17T15:22:25;30.80;50.80